Startpagina
METAR-TAF:

METAR-TAF

Vliegvelden :

Luchthaven Svalbard Longyear

Longyearbyen, Noorwegen

breedte: 78-15N, lengte: 015-28E, hoogte: 2 m

Actueel weer

Dit bericht is 44 minuten geleden gemaakt, om 13:50 UTC
Wind 4 kt uit het zuidwesten, variërend tussen het zuidzuidoosten en het westen
Temperatuur 0°C
Vochtigheid 74%
Druk 1026 hPa
Zicht 10 km of meer
Weinig wolken op 1200 ft
Verspreide wolken op 1500 ft

METAR: ENSB 261350Z 22004KT 150V270 9999 FEW012 SCT015 00/M04 Q1026 RMK WIND 1400FT 22005KT

Tijdstip: 16:34 (14:34 UTC)

Verwachting

Verwachting geldig van 26 om 12 UTC tot 27 om 12 UTC
Wind 5 kt uit variabele richting
Zicht 10 km of meer
Weinig wolken op 1500 ft
Verspreide wolken op 2000 ft
Kans 30%
van 26 om 21 UTC tot 27 om 03 UTC
Zicht: 4000 m
Gebroken wolken op 1200 ft
lichte sneeuw

TAF: ENSB 2612/2712 VRB05KT 9999 FEW015 SCT020 PROB30 2621/2703 4000 -SN BKN012

Waarnemingen en weersverwachtingen van meer dan 4000 vliegvelden (METAR en TAF).

De beschikbare stations zijn de gele en rode punten op de kaart.

Ga met uw muis naar het station om de naam te zien.

Klik dan om waarnemingen en weersverwachtingen te zien.

kaart wijzigen: klik op de groene knoppen met een zwart kruis om in te zoomen, op de groene knop met een streepje om uit te zoomen of op de groene pijlen voor aangrenzende kaarten.


METAR-TAF: